Terminal Aerodrome Forecast
Issued by NWS

Home | Current Version | Previous Version | Graphics & Text | Print | Product List | Glossary On
Versions: 1 2 3 4 5 6 7 8 9 10 11 12 13 14 15 16 17 18 19
000
FTUS43 KICT 230521
TAFCNU
TAF
KCNU 230521Z 2306/2406 36007KT P6SM SCT040 BKN050
      TEMPO 2306/2308 36007KT P6SM BKN015 OVC025
     FM231400 36009KT P6SM SCT070
     FM240200 03005KT P6SM FEW250=

USA.gov is the U.S. government's official web portal to all federal, state and local government web resources and services.